LUKK/KIV METAR and TAF weather

Enter ICAO airport designator
Station Type Date Time Source
LUKK METAR 2022/06/30 01:30 UTC NOAA

LUKK 300130Z 04004KT CAVOK 23/15 Q1014 NOSIG


Station Type Date Time Source
LUKK Decoded METAR 2022/06/30 01:30 UTC NOAA

Chisinau International Airport, Moldova (LUKK) 46-55-40N 028-55-51E
Jun 29, 2022 - 09:30 PM EDT / 2022.06.30 0130 UTC
Wind: from the NE (040 degrees) at 5 MPH (4 KT):0
Visibility: greater than 7 mile(s):0
Temperature: 73 F (23 C)
Dew Point: 59 F (15 C)
Relative Humidity: 60%
Pressure (altimeter): 29.94 in. Hg (1014 hPa)
ob: LUKK 300130Z 04004KT CAVOK 23/15 Q1014 NOSIG
cycle: 1

Station Type Date Time Source
LUKK TAF 2022/06/29 18:21 UTC NOAA

TAF TAF LUKK 291720Z 2918/3018 VRB05KT CAVOK
TEMPO 3010/3018 SCT045CB PROB40
TEMPO 3014/3018 VRB18G30KT 3000 TSRA BKN040CB

Example: see airport list